createdAt,value
2023-10-25T00:00:20.900Z,100.00
2023-10-25T00:03:11.858Z,100.00
2023-10-25T00:05:39.507Z,100.00
2023-10-25T00:08:06.447Z,100.00
2023-10-25T00:10:34.545Z,100.00
2023-10-25T00:13:02.006Z,100.00
2023-10-25T00:15:32.418Z,100.00
2023-10-25T00:17:59.467Z,100.00
2023-10-25T00:20:29.359Z,100.00
2023-10-25T00:22:56.341Z,100.00
2023-10-25T00:25:23.883Z,100.00
2023-10-25T00:27:53.303Z,100.00
2023-10-25T00:30:20.990Z,100.00
2023-10-25T00:32:48.597Z,100.00
2023-10-25T00:35:17.315Z,100.00
2023-10-25T00:37:44.227Z,100.00
2023-10-25T00:40:11.815Z,100.00
2023-10-25T00:42:38.888Z,100.00
2023-10-25T00:45:06.545Z,100.00
2023-10-25T00:47:33.569Z,100.00
2023-10-25T00:50:01.048Z,100.00
2023-10-25T00:52:29.690Z,100.00
2023-10-25T00:54:57.466Z,100.00
2023-10-25T00:57:24.645Z,100.00
2023-10-25T00:59:52.356Z,100.00
2023-10-25T01:02:22.201Z,100.00
2023-10-25T01:04:49.726Z,100.00
2023-10-25T01:07:17.501Z,100.00
2023-10-25T01:09:45.168Z,100.00
2023-10-25T01:12:12.697Z,100.00
2023-10-25T01:14:42.286Z,100.00
2023-10-25T01:17:09.276Z,100.00
2023-10-25T01:19:36.577Z,100.00
2023-10-25T01:22:03.824Z,100.00
2023-10-25T01:24:31.126Z,100.00
2023-10-25T01:26:58.441Z,100.00
2023-10-25T01:29:25.820Z,100.00
2023-10-25T01:31:53.353Z,100.00
2023-10-25T01:34:22.844Z,100.00
2023-10-25T01:36:50.502Z,100.00
2023-10-25T01:39:17.849Z,100.00
2023-10-25T01:41:44.909Z,100.00
2023-10-25T01:44:12.242Z,100.00
2023-10-25T01:46:39.285Z,100.00
2023-10-25T01:49:06.730Z,100.00
2023-10-25T01:51:33.694Z,100.00
2023-10-25T01:54:04.085Z,100.00
2023-10-25T01:56:31.050Z,100.00
2023-10-25T01:58:58.496Z,100.00
2023-10-25T02:01:25.619Z,100.00
2023-10-25T02:03:53.087Z,100.00
2023-10-25T02:06:20.526Z,100.00
2023-10-25T02:08:47.951Z,100.00
2023-10-25T02:11:17.764Z,100.00
2023-10-25T02:13:44.985Z,100.00
2023-10-25T02:16:13.518Z,100.00
2023-10-25T02:18:41.200Z,100.00
2023-10-25T02:21:08.188Z,100.00
2023-10-25T02:23:35.467Z,100.00
2023-10-25T02:26:02.504Z,100.00
2023-10-25T02:28:29.788Z,100.00
2023-10-25T02:30:56.729Z,100.00
2023-10-25T02:33:24.240Z,100.00
2023-10-25T02:35:53.818Z,100.00
2023-10-25T02:38:21.661Z,100.00
2023-10-25T02:40:48.628Z,100.00
2023-10-25T02:43:18.462Z,100.00
2023-10-25T02:45:48.047Z,100.00
2023-10-25T02:48:15.571Z,100.00
2023-10-25T02:50:42.783Z,100.00
2023-10-25T02:53:10.027Z,100.00
2023-10-25T02:55:36.949Z,100.00
2023-10-25T02:58:04.238Z,100.00
2023-10-25T03:00:31.482Z,100.00
2023-10-25T03:02:59.080Z,100.00
2023-10-25T03:05:26.213Z,100.00
2023-10-25T03:07:53.470Z,100.00
2023-10-25T03:10:22.672Z,100.00
2023-10-25T03:12:50.381Z,100.00
2023-10-25T03:15:20.262Z,100.00
2023-10-25T03:17:47.587Z,100.00
2023-10-25T03:20:14.678Z,100.00
2023-10-25T03:22:42.060Z,100.00
2023-10-25T03:25:11.356Z,100.00
2023-10-25T03:27:39.047Z,100.00
2023-10-25T03:30:06.451Z,100.00
2023-10-25T03:32:33.966Z,100.00
2023-10-25T03:35:01.313Z,100.00
2023-10-25T03:37:31.142Z,100.00
2023-10-25T03:39:58.338Z,100.00
2023-10-25T03:42:28.278Z,100.00
2023-10-25T03:44:55.339Z,100.00
2023-10-25T03:47:22.701Z,100.00
2023-10-25T03:49:53.128Z,100.00
2023-10-25T03:52:20.551Z,100.00
2023-10-25T03:54:47.646Z,100.00
2023-10-25T03:57:14.936Z,100.00
2023-10-25T03:59:43.179Z,100.00
2023-10-25T04:02:10.927Z,100.00
2023-10-25T04:04:40.571Z,100.00
2023-10-25T04:07:07.866Z,100.00
2023-10-25T04:09:34.883Z,100.00
2023-10-25T04:12:02.149Z,100.00
2023-10-25T04:14:29.268Z,100.00
2023-10-25T04:16:56.500Z,100.00
2023-10-25T04:19:23.523Z,100.00
2023-10-25T04:21:53.114Z,100.00
2023-10-25T04:24:20.565Z,100.00
2023-10-25T04:26:48.270Z,100.00
2023-10-25T04:29:15.278Z,100.00
2023-10-25T04:31:42.839Z,100.00
2023-10-25T04:34:09.904Z,100.00
2023-10-25T04:36:37.316Z,100.00
2023-10-25T04:39:04.231Z,100.00
2023-10-25T04:41:33.109Z,100.00
2023-10-25T04:44:00.147Z,100.00
2023-10-25T04:46:27.937Z,100.00
2023-10-25T04:48:54.950Z,100.00
2023-10-25T04:51:22.432Z,100.00
2023-10-25T04:53:49.340Z,100.00
2023-10-25T04:56:22.110Z,100.00
2023-10-25T04:58:49.357Z,100.00
2023-10-25T05:01:16.910Z,100.00
2023-10-25T05:03:47.175Z,100.00
2023-10-25T05:06:14.830Z,100.00
2023-10-25T05:08:43.036Z,100.00
2023-10-25T05:11:14.720Z,100.00
2023-10-25T05:13:41.868Z,100.00
2023-10-25T05:16:09.515Z,100.00
2023-10-25T05:18:38.987Z,100.00
2023-10-25T05:21:06.404Z,100.00
2023-10-25T05:23:34.392Z,100.00
2023-10-25T05:26:02.756Z,100.00
2023-10-25T05:28:30.619Z,100.00
2023-10-25T05:31:01.832Z,100.00
2023-10-25T05:33:29.344Z,100.00
2023-10-25T05:36:01.267Z,100.00
2023-10-25T05:38:30.856Z,100.00
2023-10-25T05:40:59.408Z,100.00
2023-10-25T05:43:30.159Z,100.00
2023-10-25T05:45:58.305Z,100.00
2023-10-25T05:48:25.678Z,100.00
2023-10-25T05:50:53.176Z,100.00
2023-10-25T05:53:22.819Z,100.00
2023-10-25T05:55:50.342Z,100.00
2023-10-25T05:58:19.943Z,100.00
2023-10-25T06:00:51.933Z,100.00
2023-10-25T06:05:52.404Z,100.00
2023-10-25T06:08:19.830Z,100.00
2023-10-25T06:10:47.362Z,100.00
2023-10-25T06:13:14.380Z,100.00
2023-10-25T06:15:42.016Z,100.00
2023-10-25T06:18:10.511Z,100.00
2023-10-25T06:20:37.712Z,100.00
2023-10-25T06:23:05.114Z,100.00
2023-10-25T06:25:32.572Z,100.00
2023-10-25T06:28:00.757Z,100.00
2023-10-25T06:30:31.411Z,100.00
2023-10-25T06:33:00.107Z,100.00
2023-10-25T06:35:27.719Z,100.00
2023-10-25T06:37:54.963Z,100.00
2023-10-25T06:40:23.390Z,100.00
2023-10-25T06:42:50.594Z,100.00
2023-10-25T06:45:18.058Z,100.00
2023-10-25T06:47:47.464Z,100.00
2023-10-25T06:50:15.528Z,100.00
2023-10-25T06:52:42.911Z,100.00
2023-10-25T06:55:10.588Z,100.00
2023-10-25T06:57:40.366Z,100.00
2023-10-25T07:00:10.293Z,100.00
2023-10-25T07:02:43.733Z,100.00
2023-10-25T07:05:12.718Z,100.00
2023-10-25T07:07:40.784Z,100.00
2023-10-25T07:10:09.559Z,100.00
2023-10-25T07:12:36.684Z,100.00
2023-10-25T07:15:04.153Z,100.00
2023-10-25T07:17:31.387Z,100.00
2023-10-25T07:20:00.130Z,100.00
2023-10-25T07:22:30.017Z,100.00
2023-10-25T07:24:57.467Z,100.00
2023-10-25T07:27:24.442Z,100.00
2023-10-25T07:29:51.748Z,100.00
2023-10-25T07:32:21.046Z,100.00
2023-10-25T07:34:48.366Z,100.00
2023-10-25T07:37:16.459Z,100.00
2023-10-25T07:39:46.158Z,100.00
2023-10-25T07:42:13.247Z,100.00
2023-10-25T07:44:41.035Z,100.00
2023-10-25T07:47:08.233Z,100.00
2023-10-25T07:49:36.261Z,100.00
2023-10-25T07:52:03.774Z,100.00
2023-10-25T07:54:31.293Z,100.00
2023-10-25T07:59:28.722Z,100.00
2023-10-25T08:02:00.085Z,100.00
2023-10-25T08:04:27.810Z,100.00
2023-10-25T08:06:54.745Z,100.00
2023-10-25T08:09:22.463Z,100.00
2023-10-25T08:11:49.525Z,100.00
2023-10-25T08:14:16.916Z,100.00
2023-10-25T08:16:43.903Z,100.00
2023-10-25T08:19:11.231Z,100.00
2023-10-25T08:21:38.410Z,100.00
2023-10-25T08:24:09.136Z,100.00
2023-10-25T08:26:41.280Z,100.00
2023-10-25T08:29:09.091Z,100.00
2023-10-25T08:31:36.501Z,100.00
2023-10-25T08:34:04.533Z,100.00
2023-10-25T08:36:34.820Z,100.00
2023-10-25T08:39:02.129Z,100.00
2023-10-25T08:41:29.955Z,100.00
2023-10-25T08:43:59.158Z,100.00
2023-10-25T08:46:26.229Z,100.00
2023-10-25T08:48:56.669Z,100.00
2023-10-25T08:51:23.768Z,100.00
2023-10-25T08:53:55.721Z,100.00
2023-10-25T08:56:23.076Z,100.00
2023-10-25T08:58:50.963Z,100.00
2023-10-25T09:01:19.305Z,100.00
2023-10-25T09:03:46.966Z,100.00
2023-10-25T09:06:26.488Z,100.00
2023-10-25T09:09:01.049Z,100.00
2023-10-25T09:11:37.928Z,100.00
2023-10-25T09:14:05.865Z,100.00
2023-10-25T09:16:32.886Z,100.00
2023-10-25T09:19:03.107Z,100.00
2023-10-25T09:21:30.528Z,100.00
2023-10-25T09:24:03.559Z,93.79
2023-10-25T09:27:18.354Z,100.00
2023-10-25T09:29:45.782Z,100.00
2023-10-25T09:32:12.889Z,100.00
2023-10-25T09:34:40.319Z,100.00
2023-10-25T09:37:09.944Z,100.00
2023-10-25T09:39:38.341Z,100.00
2023-10-25T09:42:08.723Z,100.00
2023-10-25T09:44:38.718Z,100.00
2023-10-25T09:47:10.798Z,100.00
2023-10-25T09:49:42.987Z,100.00
2023-10-25T09:52:29.624Z,100.00
2023-10-25T09:55:03.722Z,100.00
2023-10-25T09:57:32.067Z,100.00
2023-10-25T10:00:00.620Z,100.00
2023-10-25T10:02:35.422Z,100.00
2023-10-25T10:05:10.887Z,100.00
2023-10-25T10:07:55.214Z,100.00
2023-10-25T10:10:25.569Z,100.00
2023-10-25T10:12:52.783Z,100.00
2023-10-25T10:15:25.452Z,100.00
2023-10-25T10:17:52.889Z,100.00
2023-10-25T10:20:38.160Z,94.17
2023-10-25T10:23:06.195Z,85.05
2023-10-25T10:25:48.812Z,83.79
2023-10-25T10:28:16.264Z,80.74
2023-10-25T10:30:43.786Z,81.39
2023-10-25T10:33:14.631Z,84.79
2023-10-25T10:35:51.198Z,82.57
2023-10-25T10:38:18.205Z,83.56
2023-10-25T10:40:49.972Z,88.26
2023-10-25T10:43:17.019Z,87.52
2023-10-25T10:45:45.966Z,87.92
2023-10-25T10:48:21.560Z,82.32
2023-10-25T10:50:50.631Z,81.66
2023-10-25T10:53:17.840Z,79.70
2023-10-25T10:55:47.285Z,85.04
2023-10-25T10:58:14.608Z,86.82
2023-10-25T11:00:46.556Z,88.46
2023-10-25T11:03:13.985Z,90.56
2023-10-25T11:05:44.189Z,93.64
2023-10-25T11:08:15.751Z,94.19
2023-10-25T11:10:43.444Z,89.20
2023-10-25T11:13:11.314Z,88.92
2023-10-25T11:15:41.005Z,95.70
2023-10-25T11:18:13.716Z,87.92
2023-10-25T11:20:42.705Z,89.95
2023-10-25T11:23:10.012Z,90.42
2023-10-25T11:25:38.588Z,88.66
2023-10-25T11:28:05.789Z,90.51
2023-10-25T11:30:36.094Z,90.86
2023-10-25T11:33:03.704Z,84.93
2023-10-25T11:35:31.217Z,88.42
2023-10-25T11:38:00.618Z,90.14
2023-10-25T11:40:37.153Z,94.81
2023-10-25T11:43:05.316Z,94.19
2023-10-25T11:45:33.159Z,97.73
2023-10-25T11:48:00.320Z,93.80
2023-10-25T11:50:27.858Z,95.22
2023-10-25T11:52:54.805Z,93.29
2023-10-25T11:55:22.171Z,94.80
2023-10-25T11:57:49.123Z,97.97
2023-10-25T12:00:16.591Z,94.32
2023-10-25T12:02:45.187Z,94.16
2023-10-25T12:05:14.741Z,100.00
2023-10-25T12:07:42.009Z,100.00
2023-10-25T12:10:09.592Z,100.00
2023-10-25T12:12:36.755Z,100.00
2023-10-25T12:15:04.448Z,100.00
2023-10-25T12:17:33.564Z,100.00
2023-10-25T12:20:18.346Z,100.00
2023-10-25T12:22:50.458Z,100.00
2023-10-25T12:25:17.815Z,100.00
2023-10-25T12:27:46.166Z,100.00
2023-10-25T12:30:13.569Z,99.12
2023-10-25T12:32:40.648Z,95.50
2023-10-25T12:35:08.670Z,97.52
2023-10-25T12:37:35.608Z,95.05
2023-10-25T12:40:05.518Z,97.94
2023-10-25T12:42:32.518Z,96.40
2023-10-25T12:44:59.984Z,95.75
2023-10-25T12:47:27.027Z,91.65
2023-10-25T12:49:54.486Z,95.03
2023-10-25T12:52:25.615Z,92.38
2023-10-25T12:54:53.572Z,90.65
2023-10-25T12:57:22.823Z,91.28
2023-10-25T12:59:53.034Z,83.94
2023-10-25T13:02:20.107Z,82.73
2023-10-25T13:04:47.772Z,82.24
2023-10-25T13:07:15.408Z,81.99
2023-10-25T13:09:42.800Z,85.02
2023-10-25T13:12:10.693Z,85.47
2023-10-25T13:14:38.612Z,83.23
2023-10-25T13:17:18.928Z,82.05
2023-10-25T13:19:47.916Z,82.23
2023-10-25T13:22:15.994Z,85.05
2023-10-25T13:24:43.680Z,86.95
2023-10-25T13:27:11.115Z,89.01
2023-10-25T13:29:42.574Z,84.29
2023-10-25T13:32:10.017Z,84.78
2023-10-25T13:34:37.453Z,88.17
2023-10-25T13:37:04.444Z,90.25
2023-10-25T13:39:31.976Z,94.50
2023-10-25T13:41:59.717Z,96.21
2023-10-25T13:44:26.980Z,98.80
2023-10-25T13:46:53.974Z,97.87
2023-10-25T13:49:21.455Z,100.00
2023-10-25T13:51:48.564Z,100.00
2023-10-25T13:54:16.153Z,100.00
2023-10-25T13:56:45.567Z,100.00
2023-10-25T13:59:13.317Z,100.00
2023-10-25T14:01:43.524Z,100.00
2023-10-25T14:04:13.343Z,100.00
2023-10-25T14:06:42.573Z,100.00
2023-10-25T14:09:11.285Z,100.00
2023-10-25T14:11:38.387Z,100.00
2023-10-25T14:14:05.795Z,100.00
2023-10-25T14:16:35.193Z,100.00
2023-10-25T14:19:02.667Z,97.41
2023-10-25T14:21:31.485Z,99.38
2023-10-25T14:23:58.980Z,96.87
2023-10-25T14:26:26.801Z,100.00
2023-10-25T14:28:54.154Z,100.00
2023-10-25T14:31:21.338Z,100.00
2023-10-25T14:33:48.789Z,100.00
2023-10-25T14:36:15.761Z,100.00
2023-10-25T14:38:43.564Z,100.00
2023-10-25T14:41:10.730Z,100.00
2023-10-25T14:43:38.962Z,100.00
2023-10-25T14:46:13.056Z,100.00
2023-10-25T14:48:40.664Z,100.00
2023-10-25T14:51:14.974Z,100.00
2023-10-25T14:53:42.806Z,100.00
2023-10-25T14:56:10.458Z,100.00
2023-10-25T14:58:40.058Z,100.00
2023-10-25T15:01:08.316Z,100.00
2023-10-25T15:03:35.936Z,100.00
2023-10-25T15:06:03.063Z,100.00
2023-10-25T15:08:30.425Z,100.00
2023-10-25T15:11:01.196Z,100.00
2023-10-25T15:13:30.470Z,100.00
2023-10-25T15:16:03.289Z,100.00
2023-10-25T15:18:32.981Z,100.00
2023-10-25T15:21:00.202Z,100.00
2023-10-25T15:23:27.618Z,100.00
2023-10-25T15:26:02.914Z,100.00
2023-10-25T15:28:30.208Z,100.00
2023-10-25T15:30:57.187Z,100.00
2023-10-25T15:33:25.754Z,100.00
2023-10-25T15:35:59.217Z,100.00
2023-10-25T15:38:26.624Z,100.00
2023-10-25T15:41:15.498Z,100.00
2023-10-25T15:43:43.462Z,100.00
2023-10-25T15:46:13.160Z,100.00
2023-10-25T15:48:45.310Z,100.00
2023-10-25T15:51:15.404Z,100.00
2023-10-25T15:53:46.426Z,100.00
2023-10-25T15:56:17.038Z,100.00
2023-10-25T15:58:45.388Z,100.00
2023-10-25T16:01:13.453Z,100.00
2023-10-25T16:03:42.217Z,100.00
2023-10-25T16:06:10.588Z,100.00
2023-10-25T16:08:41.019Z,100.00
2023-10-25T16:11:11.957Z,100.00
2023-10-25T16:13:39.382Z,100.00
2023-10-25T16:16:08.252Z,100.00
2023-10-25T16:18:36.860Z,100.00
2023-10-25T16:21:08.277Z,100.00
2023-10-25T16:23:43.024Z,100.00
2023-10-25T16:26:10.611Z,100.00
2023-10-25T16:28:43.664Z,100.00
2023-10-25T16:31:13.381Z,100.00
2023-10-25T16:33:42.297Z,100.00
2023-10-25T16:36:12.636Z,100.00
2023-10-25T16:38:42.637Z,100.00
2023-10-25T16:41:11.254Z,100.00
2023-10-25T16:43:41.538Z,100.00
2023-10-25T16:46:16.222Z,100.00
2023-10-25T16:48:47.492Z,100.00
2023-10-25T16:51:16.201Z,100.00
2023-10-25T16:53:44.951Z,100.00
2023-10-25T16:56:13.296Z,100.00
2023-10-25T16:58:43.811Z,100.00
2023-10-25T17:01:13.243Z,100.00
2023-10-25T17:03:42.325Z,100.00
2023-10-25T17:06:12.880Z,100.00
2023-10-25T17:08:42.121Z,100.00
2023-10-25T17:11:10.469Z,100.00
2023-10-25T17:13:39.568Z,100.00
2023-10-25T17:16:09.172Z,100.00
2023-10-25T17:18:40.751Z,100.00
2023-10-25T17:21:15.187Z,100.00
2023-10-25T17:23:44.501Z,100.00
2023-10-25T17:26:12.841Z,100.00
2023-10-25T17:28:41.607Z,100.00
2023-10-25T17:31:10.305Z,100.00
2023-10-25T17:33:38.924Z,100.00
2023-10-25T17:36:08.450Z,100.00
2023-10-25T17:38:39.090Z,100.00
2023-10-25T17:41:11.397Z,100.00
2023-10-25T17:43:39.177Z,100.00
2023-10-25T17:46:11.902Z,100.00
2023-10-25T17:48:41.245Z,100.00
2023-10-25T17:51:13.060Z,100.00
2023-10-25T17:53:41.859Z,100.00
2023-10-25T17:56:11.697Z,100.00
2023-10-25T17:58:40.211Z,100.00
2023-10-25T18:01:07.740Z,100.00
2023-10-25T18:03:36.104Z,100.00
2023-10-25T18:06:09.562Z,100.00
2023-10-25T18:08:40.625Z,100.00
2023-10-25T18:11:09.682Z,100.00
2023-10-25T18:13:50.450Z,100.00
2023-10-25T18:16:25.708Z,100.00
2023-10-25T18:18:53.363Z,100.00
2023-10-25T18:21:23.503Z,100.00
2023-10-25T18:23:54.710Z,100.00
2023-10-25T18:26:22.831Z,100.00
2023-10-25T18:28:51.457Z,100.00
2023-10-25T18:31:59.360Z,100.00
2023-10-25T18:34:09.056Z,100.00
2023-10-25T18:36:37.025Z,100.00
2023-10-25T18:39:05.773Z,100.00
2023-10-25T18:41:34.269Z,100.00
2023-10-25T18:44:04.005Z,100.00
2023-10-25T18:46:32.311Z,100.00
2023-10-25T18:49:02.222Z,100.00
2023-10-25T18:51:35.294Z,100.00
2023-10-25T18:54:04.566Z,100.00
2023-10-25T18:56:39.155Z,100.00
2023-10-25T18:59:09.647Z,100.00
2023-10-25T19:01:41.400Z,100.00
2023-10-25T19:04:12.821Z,100.00
2023-10-25T19:06:48.809Z,100.00
2023-10-25T19:09:23.253Z,100.00
2023-10-25T19:11:52.391Z,100.00
2023-10-25T19:14:23.255Z,100.00
2023-10-25T19:16:51.318Z,100.00
2023-10-25T19:19:22.904Z,100.00
2023-10-25T19:21:52.575Z,100.00
2023-10-25T19:24:22.829Z,100.00
2023-10-25T19:26:56.296Z,100.00
2023-10-25T19:29:33.494Z,100.00
2023-10-25T19:32:08.286Z,100.00
2023-10-25T19:34:38.833Z,100.00
2023-10-25T19:37:06.910Z,100.00
2023-10-25T19:39:41.953Z,100.00
2023-10-25T19:42:09.962Z,100.00
2023-10-25T19:44:38.826Z,100.00
2023-10-25T19:47:10.030Z,100.00
2023-10-25T19:49:40.689Z,100.00
2023-10-25T19:52:10.249Z,100.00
2023-10-25T19:54:42.555Z,100.00
2023-10-25T19:57:14.502Z,100.00
2023-10-25T19:59:51.748Z,100.00
2023-10-25T20:02:22.151Z,100.00
2023-10-25T20:04:54.017Z,100.00
2023-10-25T20:07:23.319Z,100.00
2023-10-25T20:09:54.773Z,100.00
2023-10-25T20:12:32.272Z,100.00
2023-10-25T20:15:06.661Z,100.00
2023-10-25T20:17:35.566Z,100.00
2023-10-25T20:20:10.667Z,100.00
2023-10-25T20:22:39.030Z,100.00
2023-10-25T20:25:08.098Z,100.00
2023-10-25T20:27:36.726Z,100.00
2023-10-25T20:30:06.172Z,100.00
2023-10-25T20:32:37.062Z,100.00
2023-10-25T20:35:06.907Z,100.00
2023-10-25T20:37:34.951Z,100.00
2023-10-25T20:40:04.479Z,100.00
2023-10-25T20:42:32.815Z,100.00
2023-10-25T20:45:01.286Z,100.00
2023-10-25T20:47:30.729Z,100.00
2023-10-25T20:49:59.968Z,100.00
2023-10-25T20:52:27.957Z,100.00
2023-10-25T20:54:57.552Z,100.00
2023-10-25T20:57:24.735Z,100.00
2023-10-25T20:59:54.124Z,100.00
2023-10-25T21:02:21.326Z,100.00
2023-10-25T21:04:49.165Z,100.00
2023-10-25T21:07:17.351Z,100.00
2023-10-25T21:09:45.854Z,100.00
2023-10-25T21:12:13.393Z,100.00
2023-10-25T21:14:40.883Z,100.00
2023-10-25T21:17:10.095Z,100.00
2023-10-25T21:19:37.395Z,100.00
2023-10-25T21:22:04.510Z,100.00
2023-10-25T21:24:31.731Z,100.00
2023-10-25T21:26:58.804Z,100.00
2023-10-25T21:29:26.088Z,100.00
2023-10-25T21:31:53.131Z,100.00
2023-10-25T21:34:20.428Z,100.00
2023-10-25T21:36:47.437Z,100.00
2023-10-25T21:39:14.830Z,100.00
2023-10-25T21:41:41.983Z,100.00
2023-10-25T21:44:09.527Z,100.00
2023-10-25T21:46:36.518Z,100.00
2023-10-25T21:49:04.364Z,100.00
2023-10-25T21:51:31.619Z,100.00
2023-10-25T21:53:58.893Z,100.00
2023-10-25T21:56:28.444Z,100.00
2023-10-25T21:59:49.021Z,100.00
2023-10-25T22:01:44.992Z,100.00
2023-10-25T22:04:12.381Z,100.00
2023-10-25T22:06:39.300Z,100.00
2023-10-25T22:09:13.588Z,100.00
2023-10-25T22:11:43.904Z,100.00
2023-10-25T22:14:11.380Z,100.00
2023-10-25T22:16:39.994Z,100.00
2023-10-25T22:19:08.295Z,100.00
2023-10-25T22:21:36.388Z,100.00
2023-10-25T22:24:04.486Z,100.00
2023-10-25T22:26:31.566Z,100.00
2023-10-25T22:29:15.486Z,100.00
2023-10-25T22:31:43.597Z,100.00
2023-10-25T22:34:13.080Z,100.00
2023-10-25T22:36:43.595Z,100.00
2023-10-25T22:39:11.181Z,100.00
2023-10-25T22:41:38.519Z,100.00
2023-10-25T22:44:06.282Z,100.00
2023-10-25T22:46:35.389Z,100.00
2023-10-25T22:49:02.845Z,100.00
2023-10-25T22:51:32.160Z,100.00
2023-10-25T22:53:59.519Z,100.00
2023-10-25T22:56:26.793Z,100.00
2023-10-25T22:58:54.003Z,100.00
2023-10-25T23:01:23.513Z,100.00
2023-10-25T23:03:50.841Z,100.00
2023-10-25T23:06:18.125Z,100.00
2023-10-25T23:08:45.798Z,100.00
2023-10-25T23:11:12.804Z,100.00
2023-10-25T23:13:40.083Z,100.00
2023-10-25T23:16:13.010Z,100.00
2023-10-25T23:18:40.427Z,100.00
2023-10-25T23:21:10.592Z,100.00
2023-10-25T23:23:37.943Z,100.00
2023-10-25T23:26:07.820Z,100.00
2023-10-25T23:28:35.751Z,100.00
2023-10-25T23:31:03.815Z,100.00
2023-10-25T23:33:33.807Z,100.00
2023-10-25T23:36:01.767Z,100.00
2023-10-25T23:38:29.806Z,100.00
2023-10-25T23:40:57.066Z,100.00
2023-10-25T23:43:26.973Z,100.00
2023-10-25T23:45:54.054Z,100.00
2023-10-25T23:48:21.605Z,100.00
2023-10-25T23:50:51.237Z,100.00
2023-10-25T23:53:18.616Z,100.00
2023-10-25T23:55:45.679Z,100.00
2023-10-25T23:58:13.030Z,100.00
